sensor_id;sensor_type;location;lat;lon;timestamp;temperature;humidity
44190;DHT22;29856;52.144;5.430;2023-03-01T00:01:10;4.10;99.90
44190;DHT22;29856;52.144;5.430;2023-03-01T00:03:39;3.70;99.90
44190;DHT22;29856;52.144;5.430;2023-03-01T00:06:04;3.70;99.90
44190;DHT22;29856;52.144;5.430;2023-03-01T00:08:30;4.00;99.90
44190;DHT22;29856;52.144;5.430;2023-03-01T00:11:10;4.10;99.90
44190;DHT22;29856;52.144;5.430;2023-03-01T00:13:37;4.30;99.90
44190;DHT22;29856;52.144;5.430;2023-03-01T00:16:11;4.40;99.90
44190;DHT22;29856;52.144;5.430;2023-03-01T00:18:37;4.50;99.90
44190;DHT22;29856;52.144;5.430;2023-03-01T00:21:03;4.50;99.90
44190;DHT22;29856;52.144;5.430;2023-03-01T00:23:28;4.60;99.90
44190;DHT22;29856;52.144;5.430;2023-03-01T00:25:54;4.60;99.90
44190;DHT22;29856;52.144;5.430;2023-03-01T00:28:20;4.60;99.90
44190;DHT22;29856;52.144;5.430;2023-03-01T00:30:46;4.60;99.90
44190;DHT22;29856;52.144;5.430;2023-03-01T00:33:12;4.50;99.90
44190;DHT22;29856;52.144;5.430;2023-03-01T00:35:38;4.40;99.90
44190;DHT22;29856;52.144;5.430;2023-03-01T00:38:03;4.30;99.90
44190;DHT22;29856;52.144;5.430;2023-03-01T00:40:31;4.40;99.90
44190;DHT22;29856;52.144;5.430;2023-03-01T00:42:57;4.30;99.90
44190;DHT22;29856;52.144;5.430;2023-03-01T00:45:22;4.30;99.90
44190;DHT22;29856;52.144;5.430;2023-03-01T00:47:49;4.30;99.90
44190;DHT22;29856;52.144;5.430;2023-03-01T00:50:15;4.30;99.90
44190;DHT22;29856;52.144;5.430;2023-03-01T00:52:40;4.20;99.90
44190;DHT22;29856;52.144;5.430;2023-03-01T00:55:06;4.30;99.90
44190;DHT22;29856;52.144;5.430;2023-03-01T00:57:32;3.90;99.90
44190;DHT22;29856;52.144;5.430;2023-03-01T00:59:57;3.60;99.90
44190;DHT22;29856;52.144;5.430;2023-03-01T01:02:23;3.70;99.90
44190;DHT22;29856;52.144;5.430;2023-03-01T01:04:49;3.90;99.90
44190;DHT22;29856;52.144;5.430;2023-03-01T01:07:14;4.10;99.90
44190;DHT22;29856;52.144;5.430;2023-03-01T01:09:40;4.30;99.90
44190;DHT22;29856;52.144;5.430;2023-03-01T01:12:05;4.10;99.90
44190;DHT22;29856;52.144;5.430;2023-03-01T01:14:31;4.00;99.90
44190;DHT22;29856;52.144;5.430;2023-03-01T01:16:57;3.90;99.90
44190;DHT22;29856;52.144;5.430;2023-03-01T01:19:30;4.00;99.90
44190;DHT22;29856;52.144;5.430;2023-03-01T01:21:56;4.10;99.90
44190;DHT22;29856;52.144;5.430;2023-03-01T01:24:22;3.80;99.90
44190;DHT22;29856;52.144;5.430;2023-03-01T01:26:47;3.60;99.90
44190;DHT22;29856;52.144;5.430;2023-03-01T01:29:13;3.70;99.90
44190;DHT22;29856;52.144;5.430;2023-03-01T01:31:40;3.70;99.90
44190;DHT22;29856;52.144;5.430;2023-03-01T01:34:08;3.70;99.90
44190;DHT22;29856;52.144;5.430;2023-03-01T01:36:37;3.70;99.90
44190;DHT22;29856;52.144;5.430;2023-03-01T01:39:02;4.00;99.90
44190;DHT22;29856;52.144;5.430;2023-03-01T01:41:28;3.90;99.90
44190;DHT22;29856;52.144;5.430;2023-03-01T01:44:21;4.10;99.90
44190;DHT22;29856;52.144;5.430;2023-03-01T01:47:03;4.20;99.90
44190;DHT22;29856;52.144;5.430;2023-03-01T01:49:49;4.30;99.90
44190;DHT22;29856;52.144;5.430;2023-03-01T01:52:25;4.10;99.90
44190;DHT22;29856;52.144;5.430;2023-03-01T01:54:57;3.70;99.90
44190;DHT22;29856;52.144;5.430;2023-03-01T01:57:33;3.70;99.90
44190;DHT22;29856;52.144;5.430;2023-03-01T02:00:10;3.70;99.90
44190;DHT22;29856;52.144;5.430;2023-03-01T02:02:37;3.90;99.90
44190;DHT22;29856;52.144;5.430;2023-03-01T02:05:12;3.70;99.90
44190;DHT22;29856;52.144;5.430;2023-03-01T02:07:39;3.70;99.90
44190;DHT22;29856;52.144;5.430;2023-03-01T02:10:06;3.80;99.90
44190;DHT22;29856;52.144;5.430;2023-03-01T02:12:32;4.00;99.90
44190;DHT22;29856;52.144;5.430;2023-03-01T02:14:58;4.10;99.90
44190;DHT22;29856;52.144;5.430;2023-03-01T02:17:23;4.00;99.90
44190;DHT22;29856;52.144;5.430;2023-03-01T02:22:45;3.70;99.90
44190;DHT22;29856;52.144;5.430;2023-03-01T02:30:38;4.10;99.90
44190;DHT22;29856;52.144;5.430;2023-03-01T02:33:04;4.00;99.90
44190;DHT22;29856;52.144;5.430;2023-03-01T02:35:32;3.70;99.90
44190;DHT22;29856;52.144;5.430;2023-03-01T02:38:00;3.70;99.90
44190;DHT22;29856;52.144;5.430;2023-03-01T02:40:28;3.60;99.90
44190;DHT22;29856;52.144;5.430;2023-03-01T02:42:58;3.60;99.90
44190;DHT22;29856;52.144;5.430;2023-03-01T02:45:25;3.80;99.90
44190;DHT22;29856;52.144;5.430;2023-03-01T02:47:56;3.80;99.90
44190;DHT22;29856;52.144;5.430;2023-03-01T02:51:03;3.90;99.90
44190;DHT22;29856;52.144;5.430;2023-03-01T02:53:47;3.60;99.90
44190;DHT22;29856;52.144;5.430;2023-03-01T02:56:13;3.60;99.90
44190;DHT22;29856;52.144;5.430;2023-03-01T02:58:42;3.80;99.90
44190;DHT22;29856;52.144;5.430;2023-03-01T03:01:08;3.90;99.90
44190;DHT22;29856;52.144;5.430;2023-03-01T03:03:34;3.90;99.90
44190;DHT22;29856;52.144;5.430;2023-03-01T03:05:59;3.70;99.90
44190;DHT22;29856;52.144;5.430;2023-03-01T03:08:25;3.70;99.90
44190;DHT22;29856;52.144;5.430;2023-03-01T03:10:50;3.70;99.90
44190;DHT22;29856;52.144;5.430;2023-03-01T03:13:16;3.80;99.90
44190;DHT22;29856;52.144;5.430;2023-03-01T03:15:42;3.80;99.90
44190;DHT22;29856;52.144;5.430;2023-03-01T03:18:13;3.70;99.90
44190;DHT22;29856;52.144;5.430;2023-03-01T03:20:40;3.40;99.90
44190;DHT22;29856;52.144;5.430;2023-03-01T03:23:06;3.00;99.90
44190;DHT22;29856;52.144;5.430;2023-03-01T03:25:32;3.00;99.90
44190;DHT22;29856;52.144;5.430;2023-03-01T03:27:58;2.80;99.90
44190;DHT22;29856;52.144;5.430;2023-03-01T03:30:29;2.90;99.90
44190;DHT22;29856;52.144;5.430;2023-03-01T03:32:55;2.80;99.90
44190;DHT22;29856;52.144;5.430;2023-03-01T03:35:27;2.70;99.90
44190;DHT22;29856;52.144;5.430;2023-03-01T03:37:53;2.40;99.90
44190;DHT22;29856;52.144;5.430;2023-03-01T03:40:18;2.40;99.90
44190;DHT22;29856;52.144;5.430;2023-03-01T03:42:44;2.40;99.90
44190;DHT22;29856;52.144;5.430;2023-03-01T03:45:09;2.50;99.90
44190;DHT22;29856;52.144;5.430;2023-03-01T03:47:35;2.40;99.90
44190;DHT22;29856;52.144;5.430;2023-03-01T03:50:00;2.30;99.90
44190;DHT22;29856;52.144;5.430;2023-03-01T03:52:25;2.30;99.90
44190;DHT22;29856;52.144;5.430;2023-03-01T03:54:51;2.50;99.90
44190;DHT22;29856;52.144;5.430;2023-03-01T03:57:16;2.50;99.90
44190;DHT22;29856;52.144;5.430;2023-03-01T03:59:42;2.50;99.90
44190;DHT22;29856;52.144;5.430;2023-03-01T04:02:07;2.50;99.90
44190;DHT22;29856;52.144;5.430;2023-03-01T04:04:33;2.40;99.90
44190;DHT22;29856;52.144;5.430;2023-03-01T04:06:58;2.10;99.90
44190;DHT22;29856;52.144;5.430;2023-03-01T04:09:24;1.90;99.90
44190;DHT22;29856;52.144;5.430;2023-03-01T04:11:49;1.70;99.90
44190;DHT22;29856;52.144;5.430;2023-03-01T04:14:14;1.60;99.90
44190;DHT22;29856;52.144;5.430;2023-03-01T04:16:40;1.60;99.90
44190;DHT22;29856;52.144;5.430;2023-03-01T04:19:05;1.60;99.90
44190;DHT22;29856;52.144;5.430;2023-03-01T04:21:31;1.80;99.90
44190;DHT22;29856;52.144;5.430;2023-03-01T04:23:56;2.00;99.90
44190;DHT22;29856;52.144;5.430;2023-03-01T04:26:22;2.00;99.90
44190;DHT22;29856;52.144;5.430;2023-03-01T04:28:47;1.90;99.90
44190;DHT22;29856;52.144;5.430;2023-03-01T04:31:17;1.90;99.90
44190;DHT22;29856;52.144;5.430;2023-03-01T04:33:51;2.00;99.90
44190;DHT22;29856;52.144;5.430;2023-03-01T04:36:18;2.40;99.90
44190;DHT22;29856;52.144;5.430;2023-03-01T04:38:45;2.90;99.90
44190;DHT22;29856;52.144;5.430;2023-03-01T04:41:10;2.70;99.90
44190;DHT22;29856;52.144;5.430;2023-03-01T04:43:37;2.40;99.90
44190;DHT22;29856;52.144;5.430;2023-03-01T04:46:05;2.30;99.90
44190;DHT22;29856;52.144;5.430;2023-03-01T04:48:32;2.60;99.90
44190;DHT22;29856;52.144;5.430;2023-03-01T04:50:59;2.70;99.90
44190;DHT22;29856;52.144;5.430;2023-03-01T04:53:25;2.90;99.90
44190;DHT22;29856;52.144;5.430;2023-03-01T04:55:50;3.20;99.90
44190;DHT22;29856;52.144;5.430;2023-03-01T04:58:16;3.00;99.90
44190;DHT22;29856;52.144;5.430;2023-03-01T05:00:42;2.90;99.90
44190;DHT22;29856;52.144;5.430;2023-03-01T05:03:08;2.60;99.90
44190;DHT22;29856;52.144;5.430;2023-03-01T05:05:36;2.70;99.90
44190;DHT22;29856;52.144;5.430;2023-03-01T05:08:04;2.70;99.90
44190;DHT22;29856;52.144;5.430;2023-03-01T05:10:31;2.80;99.90
44190;DHT22;29856;52.144;5.430;2023-03-01T05:12:58;3.00;99.90
44190;DHT22;29856;52.144;5.430;2023-03-01T05:15:29;2.70;99.90
44190;DHT22;29856;52.144;5.430;2023-03-01T05:17:56;2.70;99.90
44190;DHT22;29856;52.144;5.430;2023-03-01T05:20:22;2.50;99.90
44190;DHT22;29856;52.144;5.430;2023-03-01T05:22:48;2.40;99.90
44190;DHT22;29856;52.144;5.430;2023-03-01T05:25:13;2.40;99.90
44190;DHT22;29856;52.144;5.430;2023-03-01T05:27:39;2.20;99.90
44190;DHT22;29856;52.144;5.430;2023-03-01T05:30:05;2.10;99.90
44190;DHT22;29856;52.144;5.430;2023-03-01T05:32:30;2.10;99.90
44190;DHT22;29856;52.144;5.430;2023-03-01T05:34:56;2.20;99.90
44190;DHT22;29856;52.144;5.430;2023-03-01T05:37:21;2.20;99.90
44190;DHT22;29856;52.144;5.430;2023-03-01T05:39:47;1.80;99.90
44190;DHT22;29856;52.144;5.430;2023-03-01T05:42:12;1.60;99.90
44190;DHT22;29856;52.144;5.430;2023-03-01T05:44:38;1.50;99.90
44190;DHT22;29856;52.144;5.430;2023-03-01T05:47:03;1.40;99.90
44190;DHT22;29856;52.144;5.430;2023-03-01T05:49:29;1.20;99.90
44190;DHT22;29856;52.144;5.430;2023-03-01T05:51:55;1.10;99.90
44190;DHT22;29856;52.144;5.430;2023-03-01T05:54:21;1.70;99.90
44190;DHT22;29856;52.144;5.430;2023-03-01T05:56:47;2.00;99.90
44190;DHT22;29856;52.144;5.430;2023-03-01T05:59:13;2.10;99.90
44190;DHT22;29856;52.144;5.430;2023-03-01T06:01:38;2.40;99.90
44190;DHT22;29856;52.144;5.430;2023-03-01T06:04:04;2.60;99.90
44190;DHT22;29856;52.144;5.430;2023-03-01T06:06:30;2.60;99.90
44190;DHT22;29856;52.144;5.430;2023-03-01T06:08:58;2.60;99.90
44190;DHT22;29856;52.144;5.430;2023-03-01T06:11:23;2.70;99.90
44190;DHT22;29856;52.144;5.430;2023-03-01T06:13:49;2.80;99.90
44190;DHT22;29856;52.144;5.430;2023-03-01T06:16:14;2.60;99.90
44190;DHT22;29856;52.144;5.430;2023-03-01T06:18:40;2.40;99.90
44190;DHT22;29856;52.144;5.430;2023-03-01T06:21:07;2.60;99.90
44190;DHT22;29856;52.144;5.430;2023-03-01T06:23:33;2.60;99.90
44190;DHT22;29856;52.144;5.430;2023-03-01T06:25:59;2.50;99.90
44190;DHT22;29856;52.144;5.430;2023-03-01T06:28:25;2.40;99.90
44190;DHT22;29856;52.144;5.430;2023-03-01T06:30:51;2.20;99.90
44190;DHT22;29856;52.144;5.430;2023-03-01T06:33:17;2.10;99.90
44190;DHT22;29856;52.144;5.430;2023-03-01T06:35:42;2.00;99.90
44190;DHT22;29856;52.144;5.430;2023-03-01T06:38:08;1.90;99.90
44190;DHT22;29856;52.144;5.430;2023-03-01T06:40:34;1.80;99.90
44190;DHT22;29856;52.144;5.430;2023-03-01T06:43:00;1.90;99.90
44190;DHT22;29856;52.144;5.430;2023-03-01T06:45:25;2.30;99.90
44190;DHT22;29856;52.144;5.430;2023-03-01T06:47:50;2.40;99.90
44190;DHT22;29856;52.144;5.430;2023-03-01T06:50:17;2.60;99.90
44190;DHT22;29856;52.144;5.430;2023-03-01T06:52:43;2.90;99.90
44190;DHT22;29856;52.144;5.430;2023-03-01T06:55:09;3.10;99.90
44190;DHT22;29856;52.144;5.430;2023-03-01T06:57:34;3.20;99.90
44190;DHT22;29856;52.144;5.430;2023-03-01T07:00:00;3.30;99.90
44190;DHT22;29856;52.144;5.430;2023-03-01T07:02:25;3.40;99.90
44190;DHT22;29856;52.144;5.430;2023-03-01T07:04:51;3.40;99.90
44190;DHT22;29856;52.144;5.430;2023-03-01T07:07:17;3.40;99.90
44190;DHT22;29856;52.144;5.430;2023-03-01T07:09:42;3.20;99.90
44190;DHT22;29856;52.144;5.430;2023-03-01T07:12:08;3.00;99.90
44190;DHT22;29856;52.144;5.430;2023-03-01T07:14:33;2.90;99.90
44190;DHT22;29856;52.144;5.430;2023-03-01T07:16:59;2.90;99.90
44190;DHT22;29856;52.144;5.430;2023-03-01T07:19:24;2.50;99.90
44190;DHT22;29856;52.144;5.430;2023-03-01T07:21:50;2.20;99.90
44190;DHT22;29856;52.144;5.430;2023-03-01T07:24:15;2.40;99.90
44190;DHT22;29856;52.144;5.430;2023-03-01T07:26:40;2.70;99.90
44190;DHT22;29856;52.144;5.430;2023-03-01T07:29:07;2.90;99.90
44190;DHT22;29856;52.144;5.430;2023-03-01T07:31:33;3.10;99.90
44190;DHT22;29856;52.144;5.430;2023-03-01T07:33:58;3.20;99.90
44190;DHT22;29856;52.144;5.430;2023-03-01T07:36:24;3.20;99.90
44190;DHT22;29856;52.144;5.430;2023-03-01T07:38:50;3.00;99.90
44190;DHT22;29856;52.144;5.430;2023-03-01T07:41:16;2.90;99.90
44190;DHT22;29856;52.144;5.430;2023-03-01T07:43:41;3.00;99.90
44190;DHT22;29856;52.144;5.430;2023-03-01T07:46:07;3.00;99.90
44190;DHT22;29856;52.144;5.430;2023-03-01T07:48:33;3.20;99.90
44190;DHT22;29856;52.144;5.430;2023-03-01T07:51:03;3.20;99.90
44190;DHT22;29856;52.144;5.430;2023-03-01T07:53:29;3.40;99.90
44190;DHT22;29856;52.144;5.430;2023-03-01T07:56:06;3.30;99.90
44190;DHT22;29856;52.144;5.430;2023-03-01T07:58:34;3.30;99.90
44190;DHT22;29856;52.144;5.430;2023-03-01T08:01:04;3.30;99.90
44190;DHT22;29856;52.144;5.430;2023-03-01T08:03:30;3.30;99.90
44190;DHT22;29856;52.144;5.430;2023-03-01T08:05:55;3.60;99.90
44190;DHT22;29856;52.144;5.430;2023-03-01T08:08:21;3.60;99.90
44190;DHT22;29856;52.144;5.430;2023-03-01T08:10:46;3.70;99.90
44190;DHT22;29856;52.144;5.430;2023-03-01T08:13:12;3.70;99.90
44190;DHT22;29856;52.144;5.430;2023-03-01T08:15:37;3.80;99.90
44190;DHT22;29856;52.144;5.430;2023-03-01T08:18:03;3.80;99.90
44190;DHT22;29856;52.144;5.430;2023-03-01T08:20:28;3.90;99.90
44190;DHT22;29856;52.144;5.430;2023-03-01T08:22:54;3.80;99.90
44190;DHT22;29856;52.144;5.430;2023-03-01T08:25:19;3.90;99.90
44190;DHT22;29856;52.144;5.430;2023-03-01T08:27:45;4.00;99.90
44190;DHT22;29856;52.144;5.430;2023-03-01T08:30:11;4.10;99.90
44190;DHT22;29856;52.144;5.430;2023-03-01T08:32:38;4.10;99.90
44190;DHT22;29856;52.144;5.430;2023-03-01T08:35:03;4.30;99.90
44190;DHT22;29856;52.144;5.430;2023-03-01T08:37:29;4.10;99.90
44190;DHT22;29856;52.144;5.430;2023-03-01T08:39:54;4.40;99.90
44190;DHT22;29856;52.144;5.430;2023-03-01T08:42:20;4.40;99.90
44190;DHT22;29856;52.144;5.430;2023-03-01T08:44:45;4.50;99.90
44190;DHT22;29856;52.144;5.430;2023-03-01T08:47:11;4.60;99.90
44190;DHT22;29856;52.144;5.430;2023-03-01T08:49:36;4.60;99.90
44190;DHT22;29856;52.144;5.430;2023-03-01T08:52:02;4.50;99.90
44190;DHT22;29856;52.144;5.430;2023-03-01T08:54:28;4.70;99.90
44190;DHT22;29856;52.144;5.430;2023-03-01T08:56:53;4.90;99.90
44190;DHT22;29856;52.144;5.430;2023-03-01T08:59:19;4.90;99.90
44190;DHT22;29856;52.144;5.430;2023-03-01T09:01:44;4.90;99.90
44190;DHT22;29856;52.144;5.430;2023-03-01T09:04:11;4.80;99.90
44190;DHT22;29856;52.144;5.430;2023-03-01T09:06:37;4.90;99.90
44190;DHT22;29856;52.144;5.430;2023-03-01T09:09:04;5.00;99.90
44190;DHT22;29856;52.144;5.430;2023-03-01T09:11:30;5.00;99.90
44190;DHT22;29856;52.144;5.430;2023-03-01T09:13:55;5.00;99.90
44190;DHT22;29856;52.144;5.430;2023-03-01T09:16:22;5.10;99.90
44190;DHT22;29856;52.144;5.430;2023-03-01T09:18:53;5.10;99.90
44190;DHT22;29856;52.144;5.430;2023-03-01T09:21:20;5.20;99.90
44190;DHT22;29856;52.144;5.430;2023-03-01T09:23:47;5.20;99.90
44190;DHT22;29856;52.144;5.430;2023-03-01T09:26:23;5.20;99.90
44190;DHT22;29856;52.144;5.430;2023-03-01T09:28:51;5.20;99.90
44190;DHT22;29856;52.144;5.430;2023-03-01T09:31:19;5.20;99.90
44190;DHT22;29856;52.144;5.430;2023-03-01T09:33:50;5.30;99.90
44190;DHT22;29856;52.144;5.430;2023-03-01T09:36:18;5.40;99.90
44190;DHT22;29856;52.144;5.430;2023-03-01T09:38:44;5.70;99.90
44190;DHT22;29856;52.144;5.430;2023-03-01T09:46:43;5.70;99.90
44190;DHT22;29856;52.144;5.430;2023-03-01T09:49:19;5.60;99.90
44190;DHT22;29856;52.144;5.430;2023-03-01T09:52:26;5.80;99.90
44190;DHT22;29856;52.144;5.430;2023-03-01T09:54:55;5.80;99.90
44190;DHT22;29856;52.144;5.430;2023-03-01T09:57:30;6.10;99.90
44190;DHT22;29856;52.144;5.430;2023-03-01T10:02:32;6.00;99.90
44190;DHT22;29856;52.144;5.430;2023-03-01T10:10:58;6.10;99.90
44190;DHT22;29856;52.144;5.430;2023-03-01T10:13:29;6.20;99.90
44190;DHT22;29856;52.144;5.430;2023-03-01T10:16:48;6.20;99.90
44190;DHT22;29856;52.144;5.430;2023-03-01T10:18:53;6.40;99.90
44190;DHT22;29856;52.144;5.430;2023-03-01T10:21:20;6.40;99.90
44190;DHT22;29856;52.144;5.430;2023-03-01T10:23:47;6.50;99.90
44190;DHT22;29856;52.144;5.430;2023-03-01T10:31:25;6.40;99.90
44190;DHT22;29856;52.144;5.430;2023-03-01T10:33:51;6.40;99.90
44190;DHT22;29856;52.144;5.430;2023-03-01T10:36:17;6.40;99.90
44190;DHT22;29856;52.144;5.430;2023-03-01T10:38:54;6.50;99.90
44190;DHT22;29856;52.144;5.430;2023-03-01T10:41:21;6.70;99.90
44190;DHT22;29856;52.144;5.430;2023-03-01T10:43:48;6.70;99.90
44190;DHT22;29856;52.144;5.430;2023-03-01T10:46:29;6.80;99.90
44190;DHT22;29856;52.144;5.430;2023-03-01T10:51:44;7.00;99.90
44190;DHT22;29856;52.144;5.430;2023-03-01T10:54:30;7.20;99.90
44190;DHT22;29856;52.144;5.430;2023-03-01T10:57:01;7.30;99.90
44190;DHT22;29856;52.144;5.430;2023-03-01T10:59:32;7.30;99.80
44190;DHT22;29856;52.144;5.430;2023-03-01T11:02:23;7.30;99.80
44190;DHT22;29856;52.144;5.430;2023-03-01T11:05:00;7.30;99.90
44190;DHT22;29856;52.144;5.430;2023-03-01T11:07:26;7.40;99.90
44190;DHT22;29856;52.144;5.430;2023-03-01T11:09:52;7.40;99.30
44190;DHT22;29856;52.144;5.430;2023-03-01T11:12:18;7.30;99.00
44190;DHT22;29856;52.144;5.430;2023-03-01T11:14:49;7.40;99.40
44190;DHT22;29856;52.144;5.430;2023-03-01T11:17:24;7.30;99.80
44190;DHT22;29856;52.144;5.430;2023-03-01T11:22:47;7.50;98.10
44190;DHT22;29856;52.144;5.430;2023-03-01T11:25:14;7.70;97.90
44190;DHT22;29856;52.144;5.430;2023-03-01T11:27:43;7.50;97.40
44190;DHT22;29856;52.144;5.430;2023-03-01T11:35:29;7.60;97.50
44190;DHT22;29856;52.144;5.430;2023-03-01T11:40:33;7.80;97.60
44190;DHT22;29856;52.144;5.430;2023-03-01T11:43:28;7.90;97.40
44190;DHT22;29856;52.144;5.430;2023-03-01T11:51:08;7.50;97.50
44190;DHT22;29856;52.144;5.430;2023-03-01T11:56:38;7.60;96.60
44190;DHT22;29856;52.144;5.430;2023-03-01T12:07:24;8.00;97.40
44190;DHT22;29856;52.144;5.430;2023-03-01T12:12:57;8.10;97.20
44190;DHT22;29856;52.144;5.430;2023-03-01T12:18:07;8.00;97.20
44190;DHT22;29856;52.144;5.430;2023-03-01T12:21:05;8.00;97.20
44190;DHT22;29856;52.144;5.430;2023-03-01T12:24:00;8.20;96.90
44190;DHT22;29856;52.144;5.430;2023-03-01T12:27:21;8.00;96.20
44190;DHT22;29856;52.144;5.430;2023-03-01T12:32:52;8.30;97.20
44190;DHT22;29856;52.144;5.430;2023-03-01T12:46:33;8.30;97.10
44190;DHT22;29856;52.144;5.430;2023-03-01T12:49:08;8.20;96.90
44190;DHT22;29856;52.144;5.430;2023-03-01T12:51:38;8.20;96.70
44190;DHT22;29856;52.144;5.430;2023-03-01T12:54:20;8.50;97.10
44190;DHT22;29856;52.144;5.430;2023-03-01T12:56:48;8.50;97.10
44190;DHT22;29856;52.144;5.430;2023-03-01T12:59:16;8.50;96.90
44190;DHT22;29856;52.144;5.430;2023-03-01T13:01:52;8.60;96.70
44190;DHT22;29856;52.144;5.430;2023-03-01T13:04:29;8.70;96.80
44190;DHT22;29856;52.144;5.430;2023-03-01T13:07:10;8.70;96.50
44190;DHT22;29856;52.144;5.430;2023-03-01T13:10:00;8.70;97.00
44190;DHT22;29856;52.144;5.430;2023-03-01T13:17:47;9.00;96.50
44190;DHT22;29856;52.144;5.430;2023-03-01T13:20:15;8.90;96.20
44190;DHT22;29856;52.144;5.430;2023-03-01T13:22:41;9.00;95.80
44190;DHT22;29856;52.144;5.430;2023-03-01T13:25:16;9.00;96.40
44190;DHT22;29856;52.144;5.430;2023-03-01T13:27:44;8.90;95.20
44190;DHT22;29856;52.144;5.430;2023-03-01T13:35:51;8.80;95.60
44190;DHT22;29856;52.144;5.430;2023-03-01T13:44:24;9.00;94.90
44190;DHT22;29856;52.144;5.430;2023-03-01T13:46:53;9.10;95.00
44190;DHT22;29856;52.144;5.430;2023-03-01T13:49:22;9.20;95.50
44190;DHT22;29856;52.144;5.430;2023-03-01T13:51:50;9.30;95.00
44190;DHT22;29856;52.144;5.430;2023-03-01T13:54:29;9.50;95.70
44190;DHT22;29856;52.144;5.430;2023-03-01T13:56:57;9.40;94.90
44190;DHT22;29856;52.144;5.430;2023-03-01T13:59:23;9.50;95.50
44190;DHT22;29856;52.144;5.430;2023-03-01T14:01:56;9.50;95.80
44190;DHT22;29856;52.144;5.430;2023-03-01T14:04:28;9.50;94.90
44190;DHT22;29856;52.144;5.430;2023-03-01T14:09:44;9.30;95.10
44190;DHT22;29856;52.144;5.430;2023-03-01T14:19:58;9.00;94.80
44190;DHT22;29856;52.144;5.430;2023-03-01T14:22:29;9.00;95.10
44190;DHT22;29856;52.144;5.430;2023-03-01T14:25:01;9.20;95.30
44190;DHT22;29856;52.144;5.430;2023-03-01T14:27:38;9.30;94.90
44190;DHT22;29856;52.144;5.430;2023-03-01T14:30:15;9.30;95.40
44190;DHT22;29856;52.144;5.430;2023-03-01T14:32:42;9.40;94.70
44190;DHT22;29856;52.144;5.430;2023-03-01T14:35:22;9.30;94.70
44190;DHT22;29856;52.144;5.430;2023-03-01T14:37:47;9.30;94.90
44190;DHT22;29856;52.144;5.430;2023-03-01T14:40:25;9.40;95.80
44190;DHT22;29856;52.144;5.430;2023-03-01T14:42:51;9.30;94.90
44190;DHT22;29856;52.144;5.430;2023-03-01T14:45:18;9.40;95.30
44190;DHT22;29856;52.144;5.430;2023-03-01T14:47:44;9.50;95.10
44190;DHT22;29856;52.144;5.430;2023-03-01T14:52:40;9.50;95.10
44190;DHT22;29856;52.144;5.430;2023-03-01T14:55:17;9.40;95.10
44190;DHT22;29856;52.144;5.430;2023-03-01T14:57:44;9.50;95.10
44190;DHT22;29856;52.144;5.430;2023-03-01T15:00:16;9.40;95.10
44190;DHT22;29856;52.144;5.430;2023-03-01T15:02:43;9.30;95.30
44190;DHT22;29856;52.144;5.430;2023-03-01T15:05:09;9.40;95.40
44190;DHT22;29856;52.144;5.430;2023-03-01T15:07:40;9.40;95.40
44190;DHT22;29856;52.144;5.430;2023-03-01T15:10:19;9.40;94.90
44190;DHT22;29856;52.144;5.430;2023-03-01T15:12:45;9.40;95.30
44190;DHT22;29856;52.144;5.430;2023-03-01T15:17:52;9.70;96.20
44190;DHT22;29856;52.144;5.430;2023-03-01T15:20:19;9.70;95.40
44190;DHT22;29856;52.144;5.430;2023-03-01T15:22:45;9.60;95.10
44190;DHT22;29856;52.144;5.430;2023-03-01T15:25:19;9.60;94.90
44190;DHT22;29856;52.144;5.430;2023-03-01T15:27:46;9.60;95.50
44190;DHT22;29856;52.144;5.430;2023-03-01T15:30:25;9.60;94.80
44190;DHT22;29856;52.144;5.430;2023-03-01T15:33:17;9.50;95.60
44190;DHT22;29856;52.144;5.430;2023-03-01T15:35:45;9.60;96.20
44190;DHT22;29856;52.144;5.430;2023-03-01T15:38:35;9.50;95.60
44190;DHT22;29856;52.144;5.430;2023-03-01T15:41:03;9.50;95.90
44190;DHT22;29856;52.144;5.430;2023-03-01T15:43:45;9.50;96.20
44190;DHT22;29856;52.144;5.430;2023-03-01T15:46:19;9.60;96.60
44190;DHT22;29856;52.144;5.430;2023-03-01T15:48:46;9.40;96.40
44190;DHT22;29856;52.144;5.430;2023-03-01T15:51:13;9.50;96.70
44190;DHT22;29856;52.144;5.430;2023-03-01T15:53:39;9.40;96.10
44190;DHT22;29856;52.144;5.430;2023-03-01T15:56:04;9.30;96.40
44190;DHT22;29856;52.144;5.430;2023-03-01T15:58:30;9.40;96.40
44190;DHT22;29856;52.144;5.430;2023-03-01T16:00:55;9.30;96.30
44190;DHT22;29856;52.144;5.430;2023-03-01T16:03:22;9.20;96.40
44190;DHT22;29856;52.144;5.430;2023-03-01T16:05:48;9.30;96.70
44190;DHT22;29856;52.144;5.430;2023-03-01T16:08:15;9.20;96.40
44190;DHT22;29856;52.144;5.430;2023-03-01T16:10:41;9.10;96.70
44190;DHT22;29856;52.144;5.430;2023-03-01T16:13:08;9.10;96.80
44190;DHT22;29856;52.144;5.430;2023-03-01T16:15:33;9.00;96.90
44190;DHT22;29856;52.144;5.430;2023-03-01T16:17:59;8.90;97.10
44190;DHT22;29856;52.144;5.430;2023-03-01T16:20:25;8.90;96.80
44190;DHT22;29856;52.144;5.430;2023-03-01T16:22:51;8.90;97.10
44190;DHT22;29856;52.144;5.430;2023-03-01T16:25:18;8.80;97.00
44190;DHT22;29856;52.144;5.430;2023-03-01T16:27:50;8.70;97.10
44190;DHT22;29856;52.144;5.430;2023-03-01T16:30:21;8.60;97.20
44190;DHT22;29856;52.144;5.430;2023-03-01T16:32:47;8.60;97.30
44190;DHT22;29856;52.144;5.430;2023-03-01T16:35:15;8.40;97.40
44190;DHT22;29856;52.144;5.430;2023-03-01T16:37:42;8.40;97.20
44190;DHT22;29856;52.144;5.430;2023-03-01T16:40:17;8.30;97.40
44190;DHT22;29856;52.144;5.430;2023-03-01T16:42:43;8.30;97.20
44190;DHT22;29856;52.144;5.430;2023-03-01T16:45:09;8.20;97.50
44190;DHT22;29856;52.144;5.430;2023-03-01T16:47:35;8.10;97.30
44190;DHT22;29856;52.144;5.430;2023-03-01T16:50:00;8.00;97.90
44190;DHT22;29856;52.144;5.430;2023-03-01T16:52:26;8.00;97.80
44190;DHT22;29856;52.144;5.430;2023-03-01T16:54:52;8.00;98.20
44190;DHT22;29856;52.144;5.430;2023-03-01T16:57:17;7.90;98.10
44190;DHT22;29856;52.144;5.430;2023-03-01T16:59:43;7.80;98.00
44190;DHT22;29856;52.144;5.430;2023-03-01T17:02:11;7.80;98.70
44190;DHT22;29856;52.144;5.430;2023-03-01T17:04:36;7.70;98.40
44190;DHT22;29856;52.144;5.430;2023-03-01T17:07:02;7.70;98.20
44190;DHT22;29856;52.144;5.430;2023-03-01T17:09:28;7.60;98.40
44190;DHT22;29856;52.144;5.430;2023-03-01T17:11:54;7.50;98.50
44190;DHT22;29856;52.144;5.430;2023-03-01T17:14:20;7.40;98.50
44190;DHT22;29856;52.144;5.430;2023-03-01T17:16:45;7.40;98.60
44190;DHT22;29856;52.144;5.430;2023-03-01T17:19:11;7.40;98.70
44190;DHT22;29856;52.144;5.430;2023-03-01T17:21:36;7.30;98.50
44190;DHT22;29856;52.144;5.430;2023-03-01T17:24:02;7.30;99.00
44190;DHT22;29856;52.144;5.430;2023-03-01T17:26:28;7.20;98.80
44190;DHT22;29856;52.144;5.430;2023-03-01T17:28:54;7.10;99.50
44190;DHT22;29856;52.144;5.430;2023-03-01T17:31:21;7.20;99.30
44190;DHT22;29856;52.144;5.430;2023-03-01T17:33:46;7.10;98.90
44190;DHT22;29856;52.144;5.430;2023-03-01T17:36:12;7.00;99.90
44190;DHT22;29856;52.144;5.430;2023-03-01T17:38:37;7.10;99.30
44190;DHT22;29856;52.144;5.430;2023-03-01T17:41:03;7.00;99.20
44190;DHT22;29856;52.144;5.430;2023-03-01T17:43:29;7.00;99.20